sensor_id;sensor_type;location;lat;lon;timestamp;P1;durP1;ratioP1;P2;durP2;ratioP2
27558;SDS011;15002;52.028;5.670;2023-06-10T00:01:35;10.68;;;9.23;;
27558;SDS011;15002;52.028;5.670;2023-06-10T00:04:01;11.23;;;8.50;;
27558;SDS011;15002;52.028;5.670;2023-06-10T00:06:27;13.90;;;8.68;;
27558;SDS011;15002;52.028;5.670;2023-06-10T00:09:04;10.60;;;8.50;;
27558;SDS011;15002;52.028;5.670;2023-06-10T00:11:33;10.18;;;8.65;;
27558;SDS011;15002;52.028;5.670;2023-06-10T00:13:59;9.85;;;8.85;;
27558;SDS011;15002;52.028;5.670;2023-06-10T00:16:25;10.15;;;8.60;;
27558;SDS011;15002;52.028;5.670;2023-06-10T00:18:51;9.55;;;8.57;;
27558;SDS011;15002;52.028;5.670;2023-06-10T00:21:17;9.55;;;8.30;;
27558;SDS011;15002;52.028;5.670;2023-06-10T00:23:44;11.93;;;8.15;;
27558;SDS011;15002;52.028;5.670;2023-06-10T00:26:09;12.52;;;7.72;;
27558;SDS011;15002;52.028;5.670;2023-06-10T00:28:35;8.75;;;7.80;;
27558;SDS011;15002;52.028;5.670;2023-06-10T00:31:01;9.70;;;8.30;;
27558;SDS011;15002;52.028;5.670;2023-06-10T00:33:27;9.63;;;8.40;;
27558;SDS011;15002;52.028;5.670;2023-06-10T00:35:53;10.52;;;8.05;;
27558;SDS011;15002;52.028;5.670;2023-06-10T00:38:18;10.18;;;7.35;;
27558;SDS011;15002;52.028;5.670;2023-06-10T00:40:44;10.63;;;7.60;;
27558;SDS011;15002;52.028;5.670;2023-06-10T00:43:10;12.73;;;8.00;;
27558;SDS011;15002;52.028;5.670;2023-06-10T00:45:35;8.85;;;7.22;;
27558;SDS011;15002;52.028;5.670;2023-06-10T00:48:01;9.57;;;7.55;;
27558;SDS011;15002;52.028;5.670;2023-06-10T00:50:28;9.45;;;7.32;;
27558;SDS011;15002;52.028;5.670;2023-06-10T00:52:54;9.60;;;7.80;;
27558;SDS011;15002;52.028;5.670;2023-06-10T00:55:20;10.05;;;7.72;;
27558;SDS011;15002;52.028;5.670;2023-06-10T00:57:46;8.60;;;7.53;;
27558;SDS011;15002;52.028;5.670;2023-06-10T01:00:16;10.48;;;7.72;;
27558;SDS011;15002;52.028;5.670;2023-06-10T01:02:42;10.40;;;7.60;;
27558;SDS011;15002;52.028;5.670;2023-06-10T01:05:08;8.40;;;7.25;;
27558;SDS011;15002;52.028;5.670;2023-06-10T01:07:38;8.77;;;7.05;;
27558;SDS011;15002;52.028;5.670;2023-06-10T01:10:19;9.32;;;7.32;;
27558;SDS011;15002;52.028;5.670;2023-06-10T01:13:07;10.60;;;7.43;;
27558;SDS011;15002;52.028;5.670;2023-06-10T01:15:36;8.90;;;7.15;;
27558;SDS011;15002;52.028;5.670;2023-06-10T01:20:32;8.10;;;7.28;;
27558;SDS011;15002;52.028;5.670;2023-06-10T01:22:59;13.60;;;6.65;;
27558;SDS011;15002;52.028;5.670;2023-06-10T01:25:26;10.75;;;6.85;;
27558;SDS011;15002;52.028;5.670;2023-06-10T01:27:59;8.90;;;7.03;;
27558;SDS011;15002;52.028;5.670;2023-06-10T01:31:23;8.73;;;6.43;;
27558;SDS011;15002;52.028;5.670;2023-06-10T01:33:26;8.85;;;7.28;;
27558;SDS011;15002;52.028;5.670;2023-06-10T01:35:56;9.82;;;6.60;;
27558;SDS011;15002;52.028;5.670;2023-06-10T01:38:23;7.93;;;6.65;;
27558;SDS011;15002;52.028;5.670;2023-06-10T01:40:51;10.40;;;6.53;;
27558;SDS011;15002;52.028;5.670;2023-06-10T01:43:19;8.65;;;6.13;;
27558;SDS011;15002;52.028;5.670;2023-06-10T01:45:45;9.05;;;6.85;;
27558;SDS011;15002;52.028;5.670;2023-06-10T01:48:11;8.07;;;6.88;;
27558;SDS011;15002;52.028;5.670;2023-06-10T01:50:37;8.02;;;6.43;;
27558;SDS011;15002;52.028;5.670;2023-06-10T01:53:03;9.68;;;7.18;;
27558;SDS011;15002;52.028;5.670;2023-06-10T01:55:30;8.88;;;6.80;;
27558;SDS011;15002;52.028;5.670;2023-06-10T01:57:56;10.65;;;6.00;;
27558;SDS011;15002;52.028;5.670;2023-06-10T02:00:22;9.18;;;6.68;;
27558;SDS011;15002;52.028;5.670;2023-06-10T02:02:47;11.02;;;5.50;;
27558;SDS011;15002;52.028;5.670;2023-06-10T02:05:13;8.30;;;6.30;;
27558;SDS011;15002;52.028;5.670;2023-06-10T02:07:39;8.45;;;6.32;;
27558;SDS011;15002;52.028;5.670;2023-06-10T02:10:05;10.63;;;6.40;;
27558;SDS011;15002;52.028;5.670;2023-06-10T02:12:32;8.75;;;6.03;;
27558;SDS011;15002;52.028;5.670;2023-06-10T02:14:57;8.88;;;5.97;;
27558;SDS011;15002;52.028;5.670;2023-06-10T02:17:23;9.75;;;6.30;;
27558;SDS011;15002;52.028;5.670;2023-06-10T02:19:49;7.28;;;6.32;;
27558;SDS011;15002;52.028;5.670;2023-06-10T02:22:19;8.98;;;6.15;;
27558;SDS011;15002;52.028;5.670;2023-06-10T02:24:46;8.70;;;5.90;;
27558;SDS011;15002;52.028;5.670;2023-06-10T02:27:11;9.48;;;6.45;;
27558;SDS011;15002;52.028;5.670;2023-06-10T02:29:37;9.13;;;6.13;;
27558;SDS011;15002;52.028;5.670;2023-06-10T02:32:03;7.28;;;6.25;;
27558;SDS011;15002;52.028;5.670;2023-06-10T02:34:29;10.95;;;5.93;;
27558;SDS011;15002;52.028;5.670;2023-06-10T02:36:55;11.93;;;6.72;;
27558;SDS011;15002;52.028;5.670;2023-06-10T02:39:21;7.85;;;5.78;;
27558;SDS011;15002;52.028;5.670;2023-06-10T02:41:47;7.32;;;5.85;;
27558;SDS011;15002;52.028;5.670;2023-06-10T02:44:13;10.77;;;6.18;;
27558;SDS011;15002;52.028;5.670;2023-06-10T02:46:38;9.90;;;5.93;;
27558;SDS011;15002;52.028;5.670;2023-06-10T02:49:04;9.52;;;6.05;;
27558;SDS011;15002;52.028;5.670;2023-06-10T02:51:29;9.88;;;6.47;;
27558;SDS011;15002;52.028;5.670;2023-06-10T02:53:55;7.82;;;5.90;;
27558;SDS011;15002;52.028;5.670;2023-06-10T02:56:21;8.73;;;5.72;;
27558;SDS011;15002;52.028;5.670;2023-06-10T02:58:46;10.27;;;5.72;;
27558;SDS011;15002;52.028;5.670;2023-06-10T03:01:13;8.48;;;6.13;;
27558;SDS011;15002;52.028;5.670;2023-06-10T03:03:39;11.75;;;6.43;;
27558;SDS011;15002;52.028;5.670;2023-06-10T03:06:07;9.27;;;5.82;;
27558;SDS011;15002;52.028;5.670;2023-06-10T03:08:36;9.82;;;6.10;;
27558;SDS011;15002;52.028;5.670;2023-06-10T03:11:02;9.07;;;5.80;;
27558;SDS011;15002;52.028;5.670;2023-06-10T03:13:28;8.00;;;6.00;;
27558;SDS011;15002;52.028;5.670;2023-06-10T03:15:54;11.50;;;6.40;;
27558;SDS011;15002;52.028;5.670;2023-06-10T03:18:20;14.20;;;5.93;;
27558;SDS011;15002;52.028;5.670;2023-06-10T03:20:48;8.50;;;5.90;;
27558;SDS011;15002;52.028;5.670;2023-06-10T03:23:13;8.82;;;5.90;;
27558;SDS011;15002;52.028;5.670;2023-06-10T03:25:40;10.40;;;6.03;;
27558;SDS011;15002;52.028;5.670;2023-06-10T03:28:06;7.95;;;5.57;;
27558;SDS011;15002;52.028;5.670;2023-06-10T03:30:31;9.32;;;6.32;;
27558;SDS011;15002;52.028;5.670;2023-06-10T03:32:57;12.52;;;7.25;;
27558;SDS011;15002;52.028;5.670;2023-06-10T03:35:23;7.95;;;5.50;;
27558;SDS011;15002;52.028;5.670;2023-06-10T03:37:48;9.32;;;6.47;;
27558;SDS011;15002;52.028;5.670;2023-06-10T03:40:14;13.48;;;6.53;;
27558;SDS011;15002;52.028;5.670;2023-06-10T03:42:40;9.60;;;5.80;;
27558;SDS011;15002;52.028;5.670;2023-06-10T03:45:05;10.13;;;6.55;;
27558;SDS011;15002;52.028;5.670;2023-06-10T03:47:35;8.45;;;5.35;;
27558;SDS011;15002;52.028;5.670;2023-06-10T03:50:02;8.68;;;5.45;;
27558;SDS011;15002;52.028;5.670;2023-06-10T03:52:28;8.75;;;5.60;;
27558;SDS011;15002;52.028;5.670;2023-06-10T03:54:54;10.45;;;5.72;;
27558;SDS011;15002;52.028;5.670;2023-06-10T03:57:20;8.30;;;5.40;;
27558;SDS011;15002;52.028;5.670;2023-06-10T03:59:46;11.50;;;6.22;;
27558;SDS011;15002;52.028;5.670;2023-06-10T04:02:11;8.95;;;5.97;;
27558;SDS011;15002;52.028;5.670;2023-06-10T04:04:37;8.27;;;5.53;;
27558;SDS011;15002;52.028;5.670;2023-06-10T04:07:03;10.45;;;5.80;;
27558;SDS011;15002;52.028;5.670;2023-06-10T04:09:29;9.23;;;5.97;;
27558;SDS011;15002;52.028;5.670;2023-06-10T04:11:55;9.60;;;6.10;;
27558;SDS011;15002;52.028;5.670;2023-06-10T04:14:21;10.35;;;5.68;;
27558;SDS011;15002;52.028;5.670;2023-06-10T04:16:46;13.57;;;6.20;;
27558;SDS011;15002;52.028;5.670;2023-06-10T04:19:12;10.00;;;6.00;;
27558;SDS011;15002;52.028;5.670;2023-06-10T04:21:38;12.68;;;6.53;;
27558;SDS011;15002;52.028;5.670;2023-06-10T04:24:04;8.35;;;5.93;;
27558;SDS011;15002;52.028;5.670;2023-06-10T04:26:29;10.25;;;6.65;;
27558;SDS011;15002;52.028;5.670;2023-06-10T04:28:55;10.80;;;5.70;;
27558;SDS011;15002;52.028;5.670;2023-06-10T04:31:20;12.40;;;6.00;;
27558;SDS011;15002;52.028;5.670;2023-06-10T04:33:46;10.35;;;6.20;;
27558;SDS011;15002;52.028;5.670;2023-06-10T04:36:12;8.60;;;5.65;;
27558;SDS011;15002;52.028;5.670;2023-06-10T04:38:39;11.75;;;6.32;;
27558;SDS011;15002;52.028;5.670;2023-06-10T04:41:05;9.52;;;5.85;;
27558;SDS011;15002;52.028;5.670;2023-06-10T04:43:31;10.23;;;5.85;;
27558;SDS011;15002;52.028;5.670;2023-06-10T04:45:57;7.95;;;5.85;;
27558;SDS011;15002;52.028;5.670;2023-06-10T04:48:22;8.48;;;5.68;;
27558;SDS011;15002;52.028;5.670;2023-06-10T04:50:49;7.72;;;5.88;;
27558;SDS011;15002;52.028;5.670;2023-06-10T04:53:15;11.68;;;6.30;;
27558;SDS011;15002;52.028;5.670;2023-06-10T04:55:41;9.30;;;5.93;;
27558;SDS011;15002;52.028;5.670;2023-06-10T04:58:07;7.50;;;6.00;;
27558;SDS011;15002;52.028;5.670;2023-06-10T05:00:33;11.60;;;5.72;;
27558;SDS011;15002;52.028;5.670;2023-06-10T05:02:58;8.40;;;6.05;;
27558;SDS011;15002;52.028;5.670;2023-06-10T05:05:24;12.50;;;6.13;;
27558;SDS011;15002;52.028;5.670;2023-06-10T05:07:50;10.73;;;6.25;;
27558;SDS011;15002;52.028;5.670;2023-06-10T05:10:15;9.70;;;6.25;;
27558;SDS011;15002;52.028;5.670;2023-06-10T05:12:41;12.85;;;6.82;;
27558;SDS011;15002;52.028;5.670;2023-06-10T05:15:07;9.93;;;5.97;;
27558;SDS011;15002;52.028;5.670;2023-06-10T05:17:33;9.10;;;5.78;;
27558;SDS011;15002;52.028;5.670;2023-06-10T05:20:02;9.75;;;6.13;;
27558;SDS011;15002;52.028;5.670;2023-06-10T05:22:28;10.25;;;6.72;;
27558;SDS011;15002;52.028;5.670;2023-06-10T05:24:54;11.73;;;6.20;;
27558;SDS011;15002;52.028;5.670;2023-06-10T05:27:20;8.45;;;6.50;;
27558;SDS011;15002;52.028;5.670;2023-06-10T05:29:47;9.25;;;5.93;;
27558;SDS011;15002;52.028;5.670;2023-06-10T05:32:12;8.60;;;5.70;;
27558;SDS011;15002;52.028;5.670;2023-06-10T05:34:38;11.07;;;6.07;;
27558;SDS011;15002;52.028;5.670;2023-06-10T05:37:04;8.68;;;5.50;;
27558;SDS011;15002;52.028;5.670;2023-06-10T05:39:30;10.73;;;6.18;;
27558;SDS011;15002;52.028;5.670;2023-06-10T05:41:56;8.35;;;5.57;;
27558;SDS011;15002;52.028;5.670;2023-06-10T05:44:24;11.82;;;5.70;;
27558;SDS011;15002;52.028;5.670;2023-06-10T05:46:50;9.43;;;6.22;;
27558;SDS011;15002;52.028;5.670;2023-06-10T05:49:15;13.52;;;6.00;;
27558;SDS011;15002;52.028;5.670;2023-06-10T05:51:41;8.18;;;5.80;;
27558;SDS011;15002;52.028;5.670;2023-06-10T05:54:07;8.20;;;6.03;;
27558;SDS011;15002;52.028;5.670;2023-06-10T05:56:32;7.97;;;5.38;;
27558;SDS011;15002;52.028;5.670;2023-06-10T05:58:58;8.90;;;5.97;;
27558;SDS011;15002;52.028;5.670;2023-06-10T06:01:24;8.38;;;5.82;;
27558;SDS011;15002;52.028;5.670;2023-06-10T06:03:50;9.43;;;5.68;;
27558;SDS011;15002;52.028;5.670;2023-06-10T06:06:15;11.68;;;6.15;;
27558;SDS011;15002;52.028;5.670;2023-06-10T06:08:41;8.32;;;5.95;;
27558;SDS011;15002;52.028;5.670;2023-06-10T06:11:07;8.00;;;6.10;;
27558;SDS011;15002;52.028;5.670;2023-06-10T06:13:32;9.45;;;5.70;;
27558;SDS011;15002;52.028;5.670;2023-06-10T06:15:58;7.68;;;5.72;;
27558;SDS011;15002;52.028;5.670;2023-06-10T06:18:24;10.10;;;5.55;;
27558;SDS011;15002;52.028;5.670;2023-06-10T06:20:50;8.13;;;5.55;;
27558;SDS011;15002;52.028;5.670;2023-06-10T06:23:15;7.85;;;5.63;;
27558;SDS011;15002;52.028;5.670;2023-06-10T06:25:41;12.93;;;5.80;;
27558;SDS011;15002;52.028;5.670;2023-06-10T06:28:07;7.85;;;5.53;;
27558;SDS011;15002;52.028;5.670;2023-06-10T06:30:35;7.13;;;5.43;;
27558;SDS011;15002;52.028;5.670;2023-06-10T06:33:01;9.00;;;6.07;;
27558;SDS011;15002;52.028;5.670;2023-06-10T06:35:27;8.52;;;5.90;;
27558;SDS011;15002;52.028;5.670;2023-06-10T06:37:52;8.60;;;5.65;;
27558;SDS011;15002;52.028;5.670;2023-06-10T06:40:18;7.85;;;5.10;;
27558;SDS011;15002;52.028;5.670;2023-06-10T06:42:44;8.88;;;5.68;;
27558;SDS011;15002;52.028;5.670;2023-06-10T06:45:10;7.85;;;5.22;;
27558;SDS011;15002;52.028;5.670;2023-06-10T06:47:35;9.88;;;5.18;;
27558;SDS011;15002;52.028;5.670;2023-06-10T06:50:01;4.93;;;4.43;;
27558;SDS011;15002;52.028;5.670;2023-06-10T06:52:27;7.55;;;4.90;;
27558;SDS011;15002;52.028;5.670;2023-06-10T06:54:53;7.28;;;5.00;;
27558;SDS011;15002;52.028;5.670;2023-06-10T06:57:19;8.45;;;5.60;;
27558;SDS011;15002;52.028;5.670;2023-06-10T06:59:44;8.60;;;5.25;;
27558;SDS011;15002;52.028;5.670;2023-06-10T07:02:10;7.45;;;5.20;;
27558;SDS011;15002;52.028;5.670;2023-06-10T07:04:35;7.60;;;5.22;;
27558;SDS011;15002;52.028;5.670;2023-06-10T07:07:01;6.97;;;4.80;;
27558;SDS011;15002;52.028;5.670;2023-06-10T07:09:27;9.82;;;5.25;;
27558;SDS011;15002;52.028;5.670;2023-06-10T07:11:53;6.20;;;5.03;;
27558;SDS011;15002;52.028;5.670;2023-06-10T07:14:18;10.00;;;5.70;;
27558;SDS011;15002;52.028;5.670;2023-06-10T07:16:44;6.10;;;4.90;;
27558;SDS011;15002;52.028;5.670;2023-06-10T07:19:11;7.75;;;5.25;;
27558;SDS011;15002;52.028;5.670;2023-06-10T07:21:36;7.30;;;5.47;;
27558;SDS011;15002;52.028;5.670;2023-06-10T07:24:03;6.03;;;5.05;;
27558;SDS011;15002;52.028;5.670;2023-06-10T07:26:28;7.28;;;5.15;;
27558;SDS011;15002;52.028;5.670;2023-06-10T07:28:54;8.90;;;4.95;;
27558;SDS011;15002;52.028;5.670;2023-06-10T07:31:20;8.50;;;4.70;;
27558;SDS011;15002;52.028;5.670;2023-06-10T07:33:46;5.10;;;4.50;;
27558;SDS011;15002;52.028;5.670;2023-06-10T07:36:12;7.15;;;4.85;;
27558;SDS011;15002;52.028;5.670;2023-06-10T07:38:38;7.47;;;4.90;;
27558;SDS011;15002;52.028;5.670;2023-06-10T07:41:03;7.80;;;4.90;;
27558;SDS011;15002;52.028;5.670;2023-06-10T07:43:29;7.63;;;4.63;;
27558;SDS011;15002;52.028;5.670;2023-06-10T07:45:55;7.22;;;5.13;;
27558;SDS011;15002;52.028;5.670;2023-06-10T07:48:20;5.65;;;5.05;;
27558;SDS011;15002;52.028;5.670;2023-06-10T07:50:46;6.82;;;4.75;;
27558;SDS011;15002;52.028;5.670;2023-06-10T07:53:12;7.85;;;4.90;;
27558;SDS011;15002;52.028;5.670;2023-06-10T07:55:37;5.40;;;4.57;;
27558;SDS011;15002;52.028;5.670;2023-06-10T07:58:03;7.05;;;4.80;;
27558;SDS011;15002;52.028;5.670;2023-06-10T08:00:29;7.03;;;4.65;;
27558;SDS011;15002;52.028;5.670;2023-06-10T08:02:54;6.55;;;4.68;;
27558;SDS011;15002;52.028;5.670;2023-06-10T08:05:20;5.18;;;4.68;;
27558;SDS011;15002;52.028;5.670;2023-06-10T08:07:46;7.50;;;4.20;;
27558;SDS011;15002;52.028;5.670;2023-06-10T08:10:12;7.13;;;4.28;;
27558;SDS011;15002;52.028;5.670;2023-06-10T08:12:37;6.63;;;4.80;;
27558;SDS011;15002;52.028;5.670;2023-06-10T08:15:03;6.38;;;4.57;;
27558;SDS011;15002;52.028;5.670;2023-06-10T08:17:32;6.50;;;4.50;;
27558;SDS011;15002;52.028;5.670;2023-06-10T08:19:57;5.97;;;4.20;;
27558;SDS011;15002;52.028;5.670;2023-06-10T08:22:23;6.80;;;4.38;;
27558;SDS011;15002;52.028;5.670;2023-06-10T08:24:49;6.65;;;5.18;;
27558;SDS011;15002;52.028;5.670;2023-06-10T08:27:14;6.35;;;4.82;;
27558;SDS011;15002;52.028;5.670;2023-06-10T08:29:40;6.53;;;4.43;;
27558;SDS011;15002;52.028;5.670;2023-06-10T08:32:06;5.68;;;5.10;;
27558;SDS011;15002;52.028;5.670;2023-06-10T08:34:35;8.00;;;4.90;;
27558;SDS011;15002;52.028;5.670;2023-06-10T08:37:02;7.00;;;4.57;;
27558;SDS011;15002;52.028;5.670;2023-06-10T08:39:28;6.90;;;4.60;;
27558;SDS011;15002;52.028;5.670;2023-06-10T08:44:35;8.75;;;4.50;;
27558;SDS011;15002;52.028;5.670;2023-06-10T08:47:12;6.15;;;4.53;;
27558;SDS011;15002;52.028;5.670;2023-06-10T08:49:41;4.60;;;4.13;;
27558;SDS011;15002;52.028;5.670;2023-06-10T08:52:09;5.70;;;4.60;;
27558;SDS011;15002;52.028;5.670;2023-06-10T08:54:42;6.15;;;4.60;;
27558;SDS011;15002;52.028;5.670;2023-06-10T08:57:18;7.15;;;4.63;;
27558;SDS011;15002;52.028;5.670;2023-06-10T08:59:46;8.05;;;4.93;;
27558;SDS011;15002;52.028;5.670;2023-06-10T09:02:13;7.22;;;5.20;;
27558;SDS011;15002;52.028;5.670;2023-06-10T09:04:42;6.43;;;4.50;;
27558;SDS011;15002;52.028;5.670;2023-06-10T09:07:09;5.05;;;4.53;;
27558;SDS011;15002;52.028;5.670;2023-06-10T09:09:35;9.55;;;4.95;;
27558;SDS011;15002;52.028;5.670;2023-06-10T09:12:02;5.85;;;5.00;;
27558;SDS011;15002;52.028;5.670;2023-06-10T09:14:28;5.40;;;4.57;;
27558;SDS011;15002;52.028;5.670;2023-06-10T09:16:54;15.70;;;4.75;;
27558;SDS011;15002;52.028;5.670;2023-06-10T09:19:23;5.30;;;4.18;;
27558;SDS011;15002;52.028;5.670;2023-06-10T09:21:50;7.18;;;4.65;;
27558;SDS011;15002;52.028;5.670;2023-06-10T09:24:16;7.93;;;4.53;;
27558;SDS011;15002;52.028;5.670;2023-06-10T09:26:42;4.82;;;4.38;;
27558;SDS011;15002;52.028;5.670;2023-06-10T09:29:09;7.60;;;4.70;;
27558;SDS011;15002;52.028;5.670;2023-06-10T09:31:37;7.10;;;4.90;;
27558;SDS011;15002;52.028;5.670;2023-06-10T09:34:13;6.75;;;4.55;;
27558;SDS011;15002;52.028;5.670;2023-06-10T09:36:40;6.50;;;4.90;;
27558;SDS011;15002;52.028;5.670;2023-06-10T09:39:16;9.95;;;5.00;;
27558;SDS011;15002;52.028;5.670;2023-06-10T09:41:43;4.82;;;4.25;;
27558;SDS011;15002;52.028;5.670;2023-06-10T09:44:12;6.80;;;4.95;;
27558;SDS011;15002;52.028;5.670;2023-06-10T09:46:39;8.55;;;4.90;;
27558;SDS011;15002;52.028;5.670;2023-06-10T09:49:06;7.00;;;4.78;;
27558;SDS011;15002;52.028;5.670;2023-06-10T09:51:32;7.90;;;4.82;;
27558;SDS011;15002;52.028;5.670;2023-06-10T09:53:57;7.28;;;5.35;;
27558;SDS011;15002;52.028;5.670;2023-06-10T09:56:34;8.18;;;4.97;;
27558;SDS011;15002;52.028;5.670;2023-06-10T09:59:00;6.43;;;4.65;;
27558;SDS011;15002;52.028;5.670;2023-06-10T10:01:27;5.05;;;4.47;;
27558;SDS011;15002;52.028;5.670;2023-06-10T10:03:53;6.50;;;4.50;;
27558;SDS011;15002;52.028;5.670;2023-06-10T10:06:19;8.18;;;4.57;;
27558;SDS011;15002;52.028;5.670;2023-06-10T10:08:46;4.80;;;4.20;;
27558;SDS011;15002;52.028;5.670;2023-06-10T10:11:13;6.20;;;4.65;;
27558;SDS011;15002;52.028;5.670;2023-06-10T10:13:45;6.95;;;4.68;;
27558;SDS011;15002;52.028;5.670;2023-06-10T10:16:14;8.13;;;4.35;;
27558;SDS011;15002;52.028;5.670;2023-06-10T10:18:54;6.22;;;4.70;;
27558;SDS011;15002;52.028;5.670;2023-06-10T10:23:53;4.80;;;4.30;;
27558;SDS011;15002;52.028;5.670;2023-06-10T10:26:26;7.40;;;5.15;;
27558;SDS011;15002;52.028;5.670;2023-06-10T10:29:02;5.18;;;4.45;;
27558;SDS011;15002;52.028;5.670;2023-06-10T10:31:30;6.53;;;5.15;;
27558;SDS011;15002;52.028;5.670;2023-06-10T10:34:01;8.53;;;5.17;;
27558;SDS011;15002;52.028;5.670;2023-06-10T10:36:31;5.30;;;4.80;;
27558;SDS011;15002;52.028;5.670;2023-06-10T10:38:57;6.25;;;4.60;;
27558;SDS011;15002;52.028;5.670;2023-06-10T10:41:26;6.55;;;4.97;;
27558;SDS011;15002;52.028;5.670;2023-06-10T10:43:53;6.18;;;4.88;;
27558;SDS011;15002;52.028;5.670;2023-06-10T10:46:19;6.15;;;4.82;;
27558;SDS011;15002;52.028;5.670;2023-06-10T10:48:45;6.40;;;5.32;;
27558;SDS011;15002;52.028;5.670;2023-06-10T10:51:16;6.53;;;5.05;;
27558;SDS011;15002;52.028;5.670;2023-06-10T10:53:42;5.78;;;5.05;;
27558;SDS011;15002;52.028;5.670;2023-06-10T10:56:13;5.55;;;4.60;;
27558;SDS011;15002;52.028;5.670;2023-06-10T10:58:42;6.20;;;4.82;;
27558;SDS011;15002;52.028;5.670;2023-06-10T11:01:40;6.10;;;4.10;;
27558;SDS011;15002;52.028;5.670;2023-06-10T11:04:07;7.65;;;5.50;;
27558;SDS011;15002;52.028;5.670;2023-06-10T11:06:34;7.28;;;4.72;;
27558;SDS011;15002;52.028;5.670;2023-06-10T11:09:00;7.50;;;4.88;;
27558;SDS011;15002;52.028;5.670;2023-06-10T11:11:26;7.32;;;5.38;;
27558;SDS011;15002;52.028;5.670;2023-06-10T11:16:26;5.63;;;4.85;;
27558;SDS011;15002;52.028;5.670;2023-06-10T11:18:53;8.13;;;5.05;;
27558;SDS011;15002;52.028;5.670;2023-06-10T11:21:19;6.13;;;4.90;;
27558;SDS011;15002;52.028;5.670;2023-06-10T11:23:45;8.73;;;4.80;;
27558;SDS011;15002;52.028;5.670;2023-06-10T11:26:20;6.85;;;4.75;;
27558;SDS011;15002;52.028;5.670;2023-06-10T11:33:59;6.55;;;4.43;;
27558;SDS011;15002;52.028;5.670;2023-06-10T11:36:30;7.05;;;4.60;;
27558;SDS011;15002;52.028;5.670;2023-06-10T11:39:00;5.38;;;4.45;;
